sensor_id;sensor_type;location;lat;lon;timestamp;P1;durP1;ratioP1;P2;durP2;ratioP2
61905;SDS011;47863;55.766;37.672;2023-04-03T00:01:30;7.32;;;4.03;;
61905;SDS011;47863;55.766;37.672;2023-04-03T00:03:56;5.32;;;2.95;;
61905;SDS011;47863;55.766;37.672;2023-04-03T00:06:23;6.18;;;3.85;;
61905;SDS011;47863;55.766;37.672;2023-04-03T00:08:50;5.90;;;3.33;;
61905;SDS011;47863;55.766;37.672;2023-04-03T00:11:17;10.80;;;4.57;;
61905;SDS011;47863;55.766;37.672;2023-04-03T00:13:43;6.28;;;3.63;;
61905;SDS011;47863;55.766;37.672;2023-04-03T00:16:10;6.70;;;3.60;;
61905;SDS011;47863;55.766;37.672;2023-04-03T00:18:37;8.98;;;4.07;;
61905;SDS011;47863;55.766;37.672;2023-04-03T00:21:03;6.32;;;3.40;;
61905;SDS011;47863;55.766;37.672;2023-04-03T00:23:29;6.78;;;3.30;;
61905;SDS011;47863;55.766;37.672;2023-04-03T00:25:55;6.70;;;3.50;;
61905;SDS011;47863;55.766;37.672;2023-04-03T00:28:21;6.47;;;3.33;;
61905;SDS011;47863;55.766;37.672;2023-04-03T00:30:50;6.10;;;3.13;;
61905;SDS011;47863;55.766;37.672;2023-04-03T00:33:16;5.60;;;3.67;;
61905;SDS011;47863;55.766;37.672;2023-04-03T00:35:43;6.45;;;4.40;;
61905;SDS011;47863;55.766;37.672;2023-04-03T00:38:08;8.30;;;3.50;;
61905;SDS011;47863;55.766;37.672;2023-04-03T00:40:35;7.22;;;4.30;;
61905;SDS011;47863;55.766;37.672;2023-04-03T00:43:04;7.35;;;3.40;;
61905;SDS011;47863;55.766;37.672;2023-04-03T00:45:37;7.55;;;4.60;;
61905;SDS011;47863;55.766;37.672;2023-04-03T00:48:05;8.15;;;4.00;;
61905;SDS011;47863;55.766;37.672;2023-04-03T00:50:37;10.55;;;4.43;;
61905;SDS011;47863;55.766;37.672;2023-04-03T00:53:06;7.38;;;4.28;;
61905;SDS011;47863;55.766;37.672;2023-04-03T00:55:36;7.47;;;3.80;;
61905;SDS011;47863;55.766;37.672;2023-04-03T00:58:03;8.45;;;4.85;;
61905;SDS011;47863;55.766;37.672;2023-04-03T01:00:32;8.02;;;4.70;;
61905;SDS011;47863;55.766;37.672;2023-04-03T01:02:58;8.68;;;4.53;;
61905;SDS011;47863;55.766;37.672;2023-04-03T01:05:24;9.00;;;4.70;;
61905;SDS011;47863;55.766;37.672;2023-04-03T01:07:50;8.45;;;4.05;;
61905;SDS011;47863;55.766;37.672;2023-04-03T01:10:17;7.95;;;4.00;;
61905;SDS011;47863;55.766;37.672;2023-04-03T01:12:46;6.13;;;3.55;;
61905;SDS011;47863;55.766;37.672;2023-04-03T01:15:18;7.95;;;3.75;;
61905;SDS011;47863;55.766;37.672;2023-04-03T01:17:53;9.35;;;4.53;;
61905;SDS011;47863;55.766;37.672;2023-04-03T01:20:31;7.30;;;4.15;;
61905;SDS011;47863;55.766;37.672;2023-04-03T01:25:48;8.38;;;4.50;;
61905;SDS011;47863;55.766;37.672;2023-04-03T01:28:27;7.97;;;4.55;;
61905;SDS011;47863;55.766;37.672;2023-04-03T01:33:31;9.18;;;4.10;;
61905;SDS011;47863;55.766;37.672;2023-04-03T01:35:56;7.65;;;3.90;;
61905;SDS011;47863;55.766;37.672;2023-04-03T01:38:22;7.20;;;4.00;;
61905;SDS011;47863;55.766;37.672;2023-04-03T01:40:48;8.18;;;4.30;;
61905;SDS011;47863;55.766;37.672;2023-04-03T01:43:13;8.60;;;4.10;;
61905;SDS011;47863;55.766;37.672;2023-04-03T01:45:39;8.27;;;4.05;;
61905;SDS011;47863;55.766;37.672;2023-04-03T01:48:05;6.82;;;3.17;;
61905;SDS011;47863;55.766;37.672;2023-04-03T01:50:31;11.05;;;3.88;;
61905;SDS011;47863;55.766;37.672;2023-04-03T01:52:56;8.50;;;4.32;;
61905;SDS011;47863;55.766;37.672;2023-04-03T01:55:22;6.80;;;4.13;;
61905;SDS011;47863;55.766;37.672;2023-04-03T01:57:47;10.10;;;4.38;;
61905;SDS011;47863;55.766;37.672;2023-04-03T02:00:13;10.77;;;4.15;;
61905;SDS011;47863;55.766;37.672;2023-04-03T02:02:39;8.75;;;4.15;;
61905;SDS011;47863;55.766;37.672;2023-04-03T02:05:05;8.55;;;4.32;;
61905;SDS011;47863;55.766;37.672;2023-04-03T02:07:31;7.43;;;3.45;;
61905;SDS011;47863;55.766;37.672;2023-04-03T02:09:56;10.63;;;3.88;;
61905;SDS011;47863;55.766;37.672;2023-04-03T02:12:22;8.52;;;4.50;;
61905;SDS011;47863;55.766;37.672;2023-04-03T02:14:47;7.93;;;4.50;;
61905;SDS011;47863;55.766;37.672;2023-04-03T02:17:13;9.55;;;4.43;;
61905;SDS011;47863;55.766;37.672;2023-04-03T02:19:38;11.35;;;5.13;;
61905;SDS011;47863;55.766;37.672;2023-04-03T02:22:05;9.98;;;4.55;;
61905;SDS011;47863;55.766;37.672;2023-04-03T02:24:31;8.48;;;4.32;;
61905;SDS011;47863;55.766;37.672;2023-04-03T02:26:57;8.38;;;4.30;;
61905;SDS011;47863;55.766;37.672;2023-04-03T02:29:23;11.30;;;5.38;;
61905;SDS011;47863;55.766;37.672;2023-04-03T02:31:49;6.35;;;3.35;;
61905;SDS011;47863;55.766;37.672;2023-04-03T02:34:15;9.75;;;5.00;;
61905;SDS011;47863;55.766;37.672;2023-04-03T02:36:41;13.07;;;5.00;;
61905;SDS011;47863;55.766;37.672;2023-04-03T02:39:06;10.48;;;5.15;;
61905;SDS011;47863;55.766;37.672;2023-04-03T02:41:32;11.35;;;5.78;;
61905;SDS011;47863;55.766;37.672;2023-04-03T02:44:01;12.48;;;5.53;;
61905;SDS011;47863;55.766;37.672;2023-04-03T02:46:28;8.88;;;4.82;;
61905;SDS011;47863;55.766;37.672;2023-04-03T02:48:53;10.07;;;4.63;;
61905;SDS011;47863;55.766;37.672;2023-04-03T02:51:19;10.60;;;5.07;;
61905;SDS011;47863;55.766;37.672;2023-04-03T02:53:45;11.82;;;5.13;;
61905;SDS011;47863;55.766;37.672;2023-04-03T02:56:10;10.77;;;5.38;;
61905;SDS011;47863;55.766;37.672;2023-04-03T02:58:36;9.63;;;5.25;;
61905;SDS011;47863;55.766;37.672;2023-04-03T03:01:02;10.25;;;5.15;;
61905;SDS011;47863;55.766;37.672;2023-04-03T03:03:27;10.20;;;6.10;;
61905;SDS011;47863;55.766;37.672;2023-04-03T03:08:32;10.05;;;5.45;;
61905;SDS011;47863;55.766;37.672;2023-04-03T03:10:58;8.88;;;4.57;;
61905;SDS011;47863;55.766;37.672;2023-04-03T03:13:23;9.00;;;5.72;;
61905;SDS011;47863;55.766;37.672;2023-04-03T03:15:49;11.30;;;4.95;;
61905;SDS011;47863;55.766;37.672;2023-04-03T03:18:15;11.95;;;5.35;;
61905;SDS011;47863;55.766;37.672;2023-04-03T03:20:40;11.30;;;5.65;;
61905;SDS011;47863;55.766;37.672;2023-04-03T03:23:06;9.60;;;4.65;;
61905;SDS011;47863;55.766;37.672;2023-04-03T03:25:31;10.27;;;5.20;;
61905;SDS011;47863;55.766;37.672;2023-04-03T03:27:57;11.98;;;5.68;;
61905;SDS011;47863;55.766;37.672;2023-04-03T03:30:22;11.75;;;4.85;;
61905;SDS011;47863;55.766;37.672;2023-04-03T03:32:48;11.02;;;5.75;;
61905;SDS011;47863;55.766;37.672;2023-04-03T03:35:14;9.73;;;5.47;;
61905;SDS011;47863;55.766;37.672;2023-04-03T03:37:39;11.30;;;5.25;;
61905;SDS011;47863;55.766;37.672;2023-04-03T03:40:05;7.80;;;4.78;;
61905;SDS011;47863;55.766;37.672;2023-04-03T03:42:31;10.57;;;5.63;;
61905;SDS011;47863;55.766;37.672;2023-04-03T03:44:57;11.00;;;6.18;;
61905;SDS011;47863;55.766;37.672;2023-04-03T03:47:22;11.55;;;5.47;;
61905;SDS011;47863;55.766;37.672;2023-04-03T03:49:48;11.63;;;5.07;;
61905;SDS011;47863;55.766;37.672;2023-04-03T03:52:13;13.20;;;5.97;;
61905;SDS011;47863;55.766;37.672;2023-04-03T03:54:39;8.10;;;4.72;;
61905;SDS011;47863;55.766;37.672;2023-04-03T03:57:04;8.30;;;4.75;;
61905;SDS011;47863;55.766;37.672;2023-04-03T03:59:30;8.52;;;4.80;;
61905;SDS011;47863;55.766;37.672;2023-04-03T04:01:56;12.48;;;6.35;;
61905;SDS011;47863;55.766;37.672;2023-04-03T04:04:21;15.30;;;7.95;;
61905;SDS011;47863;55.766;37.672;2023-04-03T04:06:47;16.05;;;7.03;;
61905;SDS011;47863;55.766;37.672;2023-04-03T04:09:13;7.05;;;3.63;;
61905;SDS011;47863;55.766;37.672;2023-04-03T04:11:38;10.38;;;5.13;;
61905;SDS011;47863;55.766;37.672;2023-04-03T04:14:06;16.83;;;5.95;;
61905;SDS011;47863;55.766;37.672;2023-04-03T04:16:31;10.30;;;4.63;;
61905;SDS011;47863;55.766;37.672;2023-04-03T04:18:57;9.70;;;5.40;;
61905;SDS011;47863;55.766;37.672;2023-04-03T04:21:23;8.55;;;4.53;;
61905;SDS011;47863;55.766;37.672;2023-04-03T04:23:48;9.48;;;4.90;;
61905;SDS011;47863;55.766;37.672;2023-04-03T04:26:14;11.65;;;5.47;;
61905;SDS011;47863;55.766;37.672;2023-04-03T04:28:39;9.88;;;5.72;;
61905;SDS011;47863;55.766;37.672;2023-04-03T04:31:05;11.43;;;6.07;;
61905;SDS011;47863;55.766;37.672;2023-04-03T04:33:30;10.30;;;4.45;;
61905;SDS011;47863;55.766;37.672;2023-04-03T04:35:56;8.63;;;4.35;;
61905;SDS011;47863;55.766;37.672;2023-04-03T04:38:22;11.20;;;6.20;;
61905;SDS011;47863;55.766;37.672;2023-04-03T04:40:47;13.15;;;6.53;;
61905;SDS011;47863;55.766;37.672;2023-04-03T04:43:13;11.88;;;5.70;;
61905;SDS011;47863;55.766;37.672;2023-04-03T04:45:40;12.13;;;6.93;;
61905;SDS011;47863;55.766;37.672;2023-04-03T04:48:06;10.88;;;6.65;;
61905;SDS011;47863;55.766;37.672;2023-04-03T04:50:31;10.50;;;6.05;;
61905;SDS011;47863;55.766;37.672;2023-04-03T04:52:57;11.48;;;5.05;;
61905;SDS011;47863;55.766;37.672;2023-04-03T04:55:23;10.82;;;4.82;;
61905;SDS011;47863;55.766;37.672;2023-04-03T04:57:48;8.45;;;4.72;;
61905;SDS011;47863;55.766;37.672;2023-04-03T05:00:14;9.40;;;5.35;;
61905;SDS011;47863;55.766;37.672;2023-04-03T05:02:40;12.38;;;6.03;;
61905;SDS011;47863;55.766;37.672;2023-04-03T05:05:07;9.48;;;5.25;;
61905;SDS011;47863;55.766;37.672;2023-04-03T05:07:33;11.82;;;4.68;;
61905;SDS011;47863;55.766;37.672;2023-04-03T05:10:01;10.70;;;5.43;;
61905;SDS011;47863;55.766;37.672;2023-04-03T05:12:28;10.85;;;5.03;;
61905;SDS011;47863;55.766;37.672;2023-04-03T05:14:54;9.95;;;5.47;;
61905;SDS011;47863;55.766;37.672;2023-04-03T05:17:20;16.77;;;6.65;;
61905;SDS011;47863;55.766;37.672;2023-04-03T05:19:45;10.25;;;5.07;;
61905;SDS011;47863;55.766;37.672;2023-04-03T05:22:11;9.63;;;5.70;;
61905;SDS011;47863;55.766;37.672;2023-04-03T05:24:37;9.32;;;4.88;;
61905;SDS011;47863;55.766;37.672;2023-04-03T05:27:03;8.23;;;5.00;;
61905;SDS011;47863;55.766;37.672;2023-04-03T05:29:29;9.10;;;4.85;;
61905;SDS011;47863;55.766;37.672;2023-04-03T05:31:54;11.57;;;5.85;;
61905;SDS011;47863;55.766;37.672;2023-04-03T05:34:20;10.70;;;5.20;;
61905;SDS011;47863;55.766;37.672;2023-04-03T05:36:46;11.35;;;5.55;;
61905;SDS011;47863;55.766;37.672;2023-04-03T05:39:11;9.48;;;5.25;;
61905;SDS011;47863;55.766;37.672;2023-04-03T05:41:37;11.85;;;6.18;;
61905;SDS011;47863;55.766;37.672;2023-04-03T05:44:02;10.43;;;5.10;;
61905;SDS011;47863;55.766;37.672;2023-04-03T05:46:28;10.60;;;5.47;;
61905;SDS011;47863;55.766;37.672;2023-04-03T05:48:54;10.15;;;5.03;;
61905;SDS011;47863;55.766;37.672;2023-04-03T05:51:21;10.02;;;5.97;;
61905;SDS011;47863;55.766;37.672;2023-04-03T05:53:52;29.17;;;11.93;;
61905;SDS011;47863;55.766;37.672;2023-04-03T05:56:24;23.77;;;10.02;;
61905;SDS011;47863;55.766;37.672;2023-04-03T05:58:50;11.20;;;6.78;;
61905;SDS011;47863;55.766;37.672;2023-04-03T06:01:16;11.23;;;5.18;;
61905;SDS011;47863;55.766;37.672;2023-04-03T06:03:42;11.43;;;6.13;;
61905;SDS011;47863;55.766;37.672;2023-04-03T06:06:07;8.77;;;4.90;;
61905;SDS011;47863;55.766;37.672;2023-04-03T06:08:33;13.80;;;7.32;;
61905;SDS011;47863;55.766;37.672;2023-04-03T06:11:00;8.25;;;4.78;;
61905;SDS011;47863;55.766;37.672;2023-04-03T06:13:27;14.65;;;7.38;;
61905;SDS011;47863;55.766;37.672;2023-04-03T06:15:52;8.48;;;4.72;;
61905;SDS011;47863;55.766;37.672;2023-04-03T06:18:18;14.15;;;8.63;;
61905;SDS011;47863;55.766;37.672;2023-04-03T06:20:43;17.15;;;7.90;;
61905;SDS011;47863;55.766;37.672;2023-04-03T06:23:09;13.02;;;5.65;;
61905;SDS011;47863;55.766;37.672;2023-04-03T06:25:35;10.55;;;5.53;;
61905;SDS011;47863;55.766;37.672;2023-04-03T06:28:01;17.58;;;8.05;;
61905;SDS011;47863;55.766;37.672;2023-04-03T06:30:26;10.50;;;4.47;;
61905;SDS011;47863;55.766;37.672;2023-04-03T06:32:52;10.98;;;5.88;;
61905;SDS011;47863;55.766;37.672;2023-04-03T06:35:19;9.48;;;5.78;;
61905;SDS011;47863;55.766;37.672;2023-04-03T06:37:44;14.07;;;7.55;;
61905;SDS011;47863;55.766;37.672;2023-04-03T06:40:29;10.25;;;4.97;;
61905;SDS011;47863;55.766;37.672;2023-04-03T06:42:55;15.80;;;5.63;;
61905;SDS011;47863;55.766;37.672;2023-04-03T06:45:21;10.57;;;5.72;;
61905;SDS011;47863;55.766;37.672;2023-04-03T06:47:47;8.70;;;4.80;;
61905;SDS011;47863;55.766;37.672;2023-04-03T06:50:12;7.57;;;4.25;;
61905;SDS011;47863;55.766;37.672;2023-04-03T06:52:40;10.85;;;6.00;;
61905;SDS011;47863;55.766;37.672;2023-04-03T06:55:06;10.68;;;6.10;;
61905;SDS011;47863;55.766;37.672;2023-04-03T06:57:33;7.97;;;4.00;;
61905;SDS011;47863;55.766;37.672;2023-04-03T06:59:58;13.13;;;6.60;;
61905;SDS011;47863;55.766;37.672;2023-04-03T07:02:24;11.25;;;6.10;;
61905;SDS011;47863;55.766;37.672;2023-04-03T07:04:50;8.68;;;5.35;;
61905;SDS011;47863;55.766;37.672;2023-04-03T07:07:16;11.82;;;7.22;;
61905;SDS011;47863;55.766;37.672;2023-04-03T07:09:42;12.98;;;5.70;;
61905;SDS011;47863;55.766;37.672;2023-04-03T07:12:08;10.07;;;5.53;;
61905;SDS011;47863;55.766;37.672;2023-04-03T07:14:34;10.38;;;6.57;;
61905;SDS011;47863;55.766;37.672;2023-04-03T07:17:00;14.43;;;6.75;;
61905;SDS011;47863;55.766;37.672;2023-04-03T07:19:25;13.60;;;6.32;;
61905;SDS011;47863;55.766;37.672;2023-04-03T07:21:53;12.05;;;5.57;;
61905;SDS011;47863;55.766;37.672;2023-04-03T07:24:18;10.32;;;5.57;;
61905;SDS011;47863;55.766;37.672;2023-04-03T07:26:44;8.60;;;5.20;;
61905;SDS011;47863;55.766;37.672;2023-04-03T07:29:10;12.07;;;6.63;;
61905;SDS011;47863;55.766;37.672;2023-04-03T07:31:36;9.95;;;5.85;;
61905;SDS011;47863;55.766;37.672;2023-04-03T07:34:02;11.45;;;6.82;;
61905;SDS011;47863;55.766;37.672;2023-04-03T07:36:28;11.43;;;6.47;;
61905;SDS011;47863;55.766;37.672;2023-04-03T07:38:54;11.98;;;6.25;;
61905;SDS011;47863;55.766;37.672;2023-04-03T07:41:19;10.95;;;6.50;;
61905;SDS011;47863;55.766;37.672;2023-04-03T07:43:47;11.77;;;7.80;;
61905;SDS011;47863;55.766;37.672;2023-04-03T07:46:15;15.63;;;6.93;;
61905;SDS011;47863;55.766;37.672;2023-04-03T07:48:42;17.83;;;7.10;;
61905;SDS011;47863;55.766;37.672;2023-04-03T07:51:09;11.95;;;7.18;;
61905;SDS011;47863;55.766;37.672;2023-04-03T07:53:35;8.82;;;6.43;;
61905;SDS011;47863;55.766;37.672;2023-04-03T07:56:01;14.05;;;7.18;;
61905;SDS011;47863;55.766;37.672;2023-04-03T07:58:27;12.75;;;6.18;;
61905;SDS011;47863;55.766;37.672;2023-04-03T08:00:53;15.15;;;7.30;;
61905;SDS011;47863;55.766;37.672;2023-04-03T08:03:19;14.50;;;7.80;;
61905;SDS011;47863;55.766;37.672;2023-04-03T08:05:45;13.05;;;8.35;;
61905;SDS011;47863;55.766;37.672;2023-04-03T08:08:13;10.13;;;6.45;;
61905;SDS011;47863;55.766;37.672;2023-04-03T08:10:41;11.27;;;6.30;;
61905;SDS011;47863;55.766;37.672;2023-04-03T08:13:07;12.30;;;6.53;;
61905;SDS011;47863;55.766;37.672;2023-04-03T08:15:33;10.35;;;6.38;;
61905;SDS011;47863;55.766;37.672;2023-04-03T08:18:00;16.58;;;7.40;;
61905;SDS011;47863;55.766;37.672;2023-04-03T08:20:26;9.38;;;6.70;;
61905;SDS011;47863;55.766;37.672;2023-04-03T08:22:52;11.82;;;6.72;;
61905;SDS011;47863;55.766;37.672;2023-04-03T08:25:17;9.45;;;6.07;;
61905;SDS011;47863;55.766;37.672;2023-04-03T08:27:43;9.57;;;5.40;;
61905;SDS011;47863;55.766;37.672;2023-04-03T08:30:09;8.07;;;5.43;;
61905;SDS011;47863;55.766;37.672;2023-04-03T08:32:36;9.70;;;6.03;;
61905;SDS011;47863;55.766;37.672;2023-04-03T08:35:02;12.27;;;5.30;;
61905;SDS011;47863;55.766;37.672;2023-04-03T08:37:29;7.82;;;5.43;;
61905;SDS011;47863;55.766;37.672;2023-04-03T08:39:55;13.60;;;6.28;;
61905;SDS011;47863;55.766;37.672;2023-04-03T08:42:36;10.05;;;6.20;;
61905;SDS011;47863;55.766;37.672;2023-04-03T08:48:07;12.13;;;6.55;;
61905;SDS011;47863;55.766;37.672;2023-04-03T08:50:40;14.30;;;7.75;;
61905;SDS011;47863;55.766;37.672;2023-04-03T08:53:12;11.25;;;6.22;;
61905;SDS011;47863;55.766;37.672;2023-04-03T08:55:53;14.25;;;6.28;;
61905;SDS011;47863;55.766;37.672;2023-04-03T08:58:21;10.35;;;5.95;;
61905;SDS011;47863;55.766;37.672;2023-04-03T09:00:50;8.85;;;5.00;;
61905;SDS011;47863;55.766;37.672;2023-04-03T09:03:21;10.25;;;6.38;;
61905;SDS011;47863;55.766;37.672;2023-04-03T09:05:53;8.40;;;5.15;;
61905;SDS011;47863;55.766;37.672;2023-04-03T09:08:30;12.27;;;6.55;;
61905;SDS011;47863;55.766;37.672;2023-04-03T09:11:19;11.73;;;5.38;;
61905;SDS011;47863;55.766;37.672;2023-04-03T09:14:01;14.60;;;8.15;;
61905;SDS011;47863;55.766;37.672;2023-04-03T09:21:38;12.23;;;7.57;;
61905;SDS011;47863;55.766;37.672;2023-04-03T09:24:07;14.63;;;8.93;;
61905;SDS011;47863;55.766;37.672;2023-04-03T09:26:48;10.25;;;6.47;;
61905;SDS011;47863;55.766;37.672;2023-04-03T09:29:22;11.43;;;6.47;;
61905;SDS011;47863;55.766;37.672;2023-04-03T09:31:59;13.75;;;7.63;;
61905;SDS011;47863;55.766;37.672;2023-04-03T09:34:27;9.70;;;5.07;;
61905;SDS011;47863;55.766;37.672;2023-04-03T09:37:04;13.48;;;7.28;;
61905;SDS011;47863;55.766;37.672;2023-04-03T09:39:50;17.20;;;7.13;;
61905;SDS011;47863;55.766;37.672;2023-04-03T09:44:44;9.88;;;5.70;;
61905;SDS011;47863;55.766;37.672;2023-04-03T09:47:24;13.35;;;7.80;;
61905;SDS011;47863;55.766;37.672;2023-04-03T09:52:48;12.85;;;7.07;;
61905;SDS011;47863;55.766;37.672;2023-04-03T09:57:53;18.70;;;8.50;;
61905;SDS011;47863;55.766;37.672;2023-04-03T10:02:56;14.38;;;5.97;;
61905;SDS011;47863;55.766;37.672;2023-04-03T10:05:27;11.45;;;6.32;;
61905;SDS011;47863;55.766;37.672;2023-04-03T10:10:42;11.07;;;6.55;;
61905;SDS011;47863;55.766;37.672;2023-04-03T10:13:17;14.30;;;7.10;;
61905;SDS011;47863;55.766;37.672;2023-04-03T10:16:07;14.90;;;6.90;;
61905;SDS011;47863;55.766;37.672;2023-04-03T10:18:40;10.50;;;6.32;;
61905;SDS011;47863;55.766;37.672;2023-04-03T10:21:33;13.40;;;6.07;;
61905;SDS011;47863;55.766;37.672;2023-04-03T10:32:58;8.77;;;5.10;;
61905;SDS011;47863;55.766;37.672;2023-04-03T10:40:52;11.57;;;5.85;;
61905;SDS011;47863;55.766;37.672;2023-04-03T10:51:11;12.77;;;6.13;;
61905;SDS011;47863;55.766;37.672;2023-04-03T10:56:40;11.65;;;6.45;;
61905;SDS011;47863;55.766;37.672;2023-04-03T10:59:15;11.13;;;4.78;;
61905;SDS011;47863;55.766;37.672;2023-04-03T11:01:59;11.70;;;5.43;;
61905;SDS011;47863;55.766;37.672;2023-04-03T11:04:33;7.43;;;3.20;;
61905;SDS011;47863;55.766;37.672;2023-04-03T11:07:02;9.50;;;5.43;;
61905;SDS011;47863;55.766;37.672;2023-04-03T11:09:35;13.00;;;6.88;;
61905;SDS011;47863;55.766;37.672;2023-04-03T11:12:10;9.95;;;5.63;;
61905;SDS011;47863;55.766;37.672;2023-04-03T11:14:40;12.27;;;5.82;;
61905;SDS011;47863;55.766;37.672;2023-04-03T11:17:11;13.55;;;4.63;;
61905;SDS011;47863;55.766;37.672;2023-04-03T11:22:22;7.53;;;4.80;;
61905;SDS011;47863;55.766;37.672;2023-04-03T11:25:02;11.48;;;5.20;;
61905;SDS011;47863;55.766;37.672;2023-04-03T11:27:33;9.27;;;4.60;;
61905;SDS011;47863;55.766;37.672;2023-04-03T11:36:18;14.50;;;7.68;;
61905;SDS011;47863;55.766;37.672;2023-04-03T11:38:49;8.75;;;4.80;;
61905;SDS011;47863;55.766;37.672;2023-04-03T11:41:24;6.28;;;3.67;;
61905;SDS011;47863;55.766;37.672;2023-04-03T11:43:57;8.18;;;3.65;;
61905;SDS011;47863;55.766;37.672;2023-04-03T12:19:03;8.75;;;5.10;;
61905;SDS011;47863;55.766;37.672;2023-04-03T12:24:30;9.43;;;4.63;;
61905;SDS011;47863;55.766;37.672;2023-04-03T12:30:05;10.93;;;5.13;;
61905;SDS011;47863;55.766;37.672;2023-04-03T12:37:54;6.95;;;3.45;;
61905;SDS011;47863;55.766;37.672;2023-04-03T12:46:04;6.43;;;3.72;;
61905;SDS011;47863;55.766;37.672;2023-04-03T12:56:43;8.30;;;4.10;;
61905;SDS011;47863;55.766;37.672;2023-04-03T12:59:16;8.88;;;3.53;;
61905;SDS011;47863;55.766;37.672;2023-04-03T13:01:55;8.73;;;2.95;;
61905;SDS011;47863;55.766;37.672;2023-04-03T13:06:48;6.78;;;3.03;;
61905;SDS011;47863;55.766;37.672;2023-04-03T13:09:19;8.73;;;2.92;;
61905;SDS011;47863;55.766;37.672;2023-04-03T13:14:50;6.20;;;3.53;;
61905;SDS011;47863;55.766;37.672;2023-04-03T13:19:44;6.07;;;3.10;;
61905;SDS011;47863;55.766;37.672;2023-04-03T13:22:23;8.05;;;4.47;;
61905;SDS011;47863;55.766;37.672;2023-04-03T13:24:51;7.13;;;3.47;;
61905;SDS011;47863;55.766;37.672;2023-04-03T13:27:20;8.13;;;3.90;;
61905;SDS011;47863;55.766;37.672;2023-04-03T13:29:50;5.18;;;3.72;;
61905;SDS011;47863;55.766;37.672;2023-04-03T13:32:20;4.65;;;2.95;;
61905;SDS011;47863;55.766;37.672;2023-04-03T13:34:47;7.38;;;3.58;;
61905;SDS011;47863;55.766;37.672;2023-04-03T13:39:58;6.60;;;3.55;;
61905;SDS011;47863;55.766;37.672;2023-04-03T13:42:29;6.88;;;3.45;;
61905;SDS011;47863;55.766;37.672;2023-04-03T13:45:19;8.00;;;3.90;;
61905;SDS011;47863;55.766;37.672;2023-04-03T13:47:49;5.13;;;3.10;;
61905;SDS011;47863;55.766;37.672;2023-04-03T13:50:25;7.55;;;4.05;;
61905;SDS011;47863;55.766;37.672;2023-04-03T13:52:53;8.55;;;3.50;;
61905;SDS011;47863;55.766;37.672;2023-04-03T13:55:58;6.00;;;3.63;;
61905;SDS011;47863;55.766;37.672;2023-04-03T13:58:28;6.63;;;3.67;;
61905;SDS011;47863;55.766;37.672;2023-04-03T14:06:13;6.05;;;3.45;;
61905;SDS011;47863;55.766;37.672;2023-04-03T14:08:42;7.07;;;3.20;;
61905;SDS011;47863;55.766;37.672;2023-04-03T14:11:11;7.65;;;4.30;;
61905;SDS011;47863;55.766;37.672;2023-04-03T14:13:40;7.47;;;4.15;;
61905;SDS011;47863;55.766;37.672;2023-04-03T14:16:06;7.85;;;4.63;;
61905;SDS011;47863;55.766;37.672;2023-04-03T14:18:32;7.03;;;4.05;;
61905;SDS011;47863;55.766;37.672;2023-04-03T14:20:57;8.15;;;4.35;;
61905;SDS011;47863;55.766;37.672;2023-04-03T14:23:23;6.72;;;4.07;;
61905;SDS011;47863;55.766;37.672;2023-04-03T14:25:48;5.32;;;3.15;;
61905;SDS011;47863;55.766;37.672;2023-04-03T14:28:17;5.75;;;2.88;;
61905;SDS011;47863;55.766;37.672;2023-04-03T14:33:15;8.25;;;3.55;;
61905;SDS011;47863;55.766;37.672;2023-04-03T14:35:43;6.93;;;3.45;;
61905;SDS011;47863;55.766;37.672;2023-04-03T14:38:20;9.90;;;3.90;;
61905;SDS011;47863;55.766;37.672;2023-04-03T14:40:49;12.40;;;3.88;;
61905;SDS011;47863;55.766;37.672;2023-04-03T14:43:16;7.60;;;4.00;;
61905;SDS011;47863;55.766;37.672;2023-04-03T14:45:42;5.65;;;3.33;;
61905;SDS011;47863;55.766;37.672;2023-04-03T14:48:26;7.03;;;3.60;;
61905;SDS011;47863;55.766;37.672;2023-04-03T14:50:55;7.93;;;3.38;;
61905;SDS011;47863;55.766;37.672;2023-04-03T14:53:21;7.07;;;3.78;;
61905;SDS011;47863;55.766;37.672;2023-04-03T14:55:51;6.07;;;3.40;;
61905;SDS011;47863;55.766;37.672;2023-04-03T14:58:19;6.22;;;3.55;;
61905;SDS011;47863;55.766;37.672;2023-04-03T15:00:45;6.40;;;3.58;;
61905;SDS011;47863;55.766;37.672;2023-04-03T15:03:16;6.15;;;3.40;;
61905;SDS011;47863;55.766;37.672;2023-04-03T15:05:45;11.68;;;5.63;;
61905;SDS011;47863;55.766;37.672;2023-04-03T15:08:19;7.97;;;3.80;;
61905;SDS011;47863;55.766;37.672;2023-04-03T15:10:48;6.38;;;3.70;;
61905;SDS011;47863;55.766;37.672;2023-04-03T15:13:13;6.57;;;3.80;;
61905;SDS011;47863;55.766;37.672;2023-04-03T15:15:40;6.00;;;3.63;;
61905;SDS011;47863;55.766;37.672;2023-04-03T15:18:06;8.25;;;3.47;;
61905;SDS011;47863;55.766;37.672;2023-04-03T15:20:35;8.65;;;3.35;;
61905;SDS011;47863;55.766;37.672;2023-04-03T15:23:01;6.07;;;3.88;;
61905;SDS011;47863;55.766;37.672;2023-04-03T15:25:27;7.90;;;4.47;;
61905;SDS011;47863;55.766;37.672;2023-04-03T15:27:54;11.85;;;4.53;;
61905;SDS011;47863;55.766;37.672;2023-04-03T15:30:20;9.57;;;4.30;;
61905;SDS011;47863;55.766;37.672;2023-04-03T15:32:46;7.20;;;3.97;;
61905;SDS011;47863;55.766;37.672;2023-04-03T15:35:12;6.75;;;4.00;;
61905;SDS011;47863;55.766;37.672;2023-04-03T15:37:38;10.05;;;5.13;;
61905;SDS011;47863;55.766;37.672;2023-04-03T15:40:04;11.20;;;5.30;;
61905;SDS011;47863;55.766;37.672;2023-04-03T15:42:31;6.40;;;4.35;;
61905;SDS011;47863;55.766;37.672;2023-04-03T15:44:56;8.57;;;4.40;;
61905;SDS011;47863;55.766;37.672;2023-04-03T15:47:22;9.98;;;4.18;;
61905;SDS011;47863;55.766;37.672;2023-04-03T15:49:49;8.50;;;4.55;;
61905;SDS011;47863;55.766;37.672;2023-04-03T15:52:14;10.85;;;5.15;;
61905;SDS011;47863;55.766;37.672;2023-04-03T15:54:40;8.65;;;5.35;;
61905;SDS011;47863;55.766;37.672;2023-04-03T15:57:06;23.23;;;10.75;;
61905;SDS011;47863;55.766;37.672;2023-04-03T15:59:31;12.40;;;4.85;;
61905;SDS011;47863;55.766;37.672;2023-04-03T16:01:57;10.02;;;4.47;;
61905;SDS011;47863;55.766;37.672;2023-04-03T16:04:25;7.80;;;4.25;;
61905;SDS011;47863;55.766;37.672;2023-04-03T16:06:51;10.05;;;4.18;;
61905;SDS011;47863;55.766;37.672;2023-04-03T16:09:17;6.75;;;3.53;;
61905;SDS011;47863;55.766;37.672;2023-04-03T16:11:43;10.30;;;4.57;;
61905;SDS011;47863;55.766;37.672;2023-04-03T16:14:09;7.28;;;3.83;;
61905;SDS011;47863;55.766;37.672;2023-04-03T16:16:35;6.40;;;4.05;;
61905;SDS011;47863;55.766;37.672;2023-04-03T16:19:02;11.38;;;5.28;;
61905;SDS011;47863;55.766;37.672;2023-04-03T16:21:28;7.38;;;3.70;;
61905;SDS011;47863;55.766;37.672;2023-04-03T16:23:56;6.15;;;3.78;;
61905;SDS011;47863;55.766;37.672;2023-04-03T16:26:23;8.73;;;3.72;;
61905;SDS011;47863;55.766;37.672;2023-04-03T16:28:49;7.75;;;3.60;;
61905;SDS011;47863;55.766;37.672;2023-04-03T16:31:14;9.27;;;4.00;;
61905;SDS011;47863;55.766;37.672;2023-04-03T16:33:40;8.50;;;4.35;;
61905;SDS011;47863;55.766;37.672;2023-04-03T16:36:05;6.90;;;3.47;;
61905;SDS011;47863;55.766;37.672;2023-04-03T16:38:31;9.77;;;4.20;;
61905;SDS011;47863;55.766;37.672;2023-04-03T16:40:57;6.68;;;3.13;;
61905;SDS011;47863;55.766;37.672;2023-04-03T16:43:25;9.02;;;4.30;;
61905;SDS011;47863;55.766;37.672;2023-04-03T16:45:51;7.85;;;4.50;;
61905;SDS011;47863;55.766;37.672;2023-04-03T16:48:16;7.38;;;3.92;;
61905;SDS011;47863;55.766;37.672;2023-04-03T16:50:45;10.60;;;4.43;;
61905;SDS011;47863;55.766;37.672;2023-04-03T16:53:13;8.13;;;4.38;;